Latest Weather Observations for Avalon

IDV60901

Issued at 7:21 pm EST Monday 1 June 2020 (issued every 10 minutes, with the page automatically refreshed every 10 minutes)

About weather observations | Map of Melbourne area stations | Latest observations for Melbourne area | Other Formats
Station Details ID: 087113 Name: AVALON AIRPORT Lat: -38.03 Lon: 144.48 Height: 10.6 m
Data from the previous 72 hours. | See also: Recent months at Avalon
Date/Time
EST
Temp
°C
App
Temp
°C
Dew
Point
°C
Rel
Hum
%
Delta-T
°C
Wind Press
QNH
hPa
Press
MSL
hPa
Rain since
9am
mm
Dir  Spd
km/h
Gust
km/h
Spd
kts
Gust
kts
01/07:00pm 8.0 2.0 6.9 93 0.5 W 28 39 15 21 1013.7 1013.7 0.0
01/06:30pm 8.4 2.4 7.2 92 0.6 W 28 37 15 20 1013.0 1013.0 0.0
01/06:00pm 8.8 3.6 8.7 99 0.0 WSW 26 37 14 20 1012.4 1012.4 0.0
01/05:59pm 8.8 3.2 8.7 99 0.0 WSW 28 37 15 20 1012.4 1012.4 0.0
01/05:30pm 8.9 3.3 8.8 99 0.0 WSW 28 37 15 20 1011.9 1011.9 0.0
01/05:25pm 9.0 3.4 8.9 99 0.0 WSW 28 37 15 20 1011.7 1011.7 0.0
01/05:24pm 9.0 3.4 8.9 99 0.0 WSW 28 37 15 20 1011.7 1011.7 0.0
01/05:01pm 9.1 2.8 9.0 99 0.0 WSW 32 39 17 21 1011.1 1011.1 0.0
01/05:00pm 9.1 2.8 9.0 99 0.0 WSW 32 39 17 21 1011.1 1011.1 0.0
01/04:55pm 9.3 3.3 8.8 97 0.2 WSW 30 39 16 21 1010.9 1010.9 0.0
01/04:39pm 9.9 3.6 9.0 94 0.4 SW 32 48 17 26 1010.6 1010.6 0.0
01/04:30pm 9.9 1.4 8.7 92 0.6 SW 43 57 23 31 1010.3 1010.3 0.0
01/04:21pm 10.1 2.7 8.5 90 0.8 SW 37 57 20 31 1010.1 1010.1 0.0
01/04:00pm 10.2 4.4 9.4 95 0.4 SW 30 37 16 20 1009.5 1009.5 0.0
01/03:46pm 10.0 3.8 9.9 99 0.1 SW 33 52 18 28 1009.1 1009.1 0.0
01/03:43pm 10.1 4.1 10.1 100 0.0 SW 32 52 17 28 1009.0 1009.0 0.0
01/03:38pm 9.9 4.6 9.9 100 0.0 SW 28 50 15 27 1008.9 1008.9 0.0
01/03:30pm 9.9 4.6 9.9 100 0.0 WSW 28 35 15 19 1008.7 1008.7 0.0
01/03:10pm 9.9 3.2 9.8 99 0.1 WSW 35 52 19 28 1008.1 1008.1 0.0
01/03:08pm 9.9 2.9 9.8 99 0.1 WSW 37 56 20 30 1008.0 1008.0 0.0
01/03:00pm 9.9 1.6 9.4 97 0.2 WSW 43 57 23 31 1007.6 1007.6 0.0
01/02:51pm 10.1 2.5 9.2 94 0.4 WSW 39 57 21 31 1007.3 1007.3 0.0
01/02:43pm 10.4 2.8 9.0 91 0.7 WSW 39 54 21 29 1007.1 1007.1 0.0
01/02:30pm 11.0 2.3 8.6 85 1.2 WSW 44 57 24 31 1006.8 1006.8 0.0
01/02:07pm 10.8 4.2 9.9 94 0.5 WSW 35 54 19 29 1006.2 1006.2 0.0
01/02:05pm 10.7 3.7 9.9 95 0.4 WSW 37 54 20 29 1006.3 1006.3 0.0
01/02:00pm 10.6 3.6 10.0 96 0.3 WSW 37 52 20 28 1006.4 1006.4 0.0
01/01:38pm 10.5 3.1 9.7 95 0.4 W 39 57 21 31 1006.0 1006.0 0.0
01/01:35pm 10.5 2.6 9.4 93 0.5 W 41 57 22 31 1006.0 1006.0 0.0
01/01:31pm 10.7 3.5 9.1 90 0.8 W 37 56 20 30 1005.8 1005.8 0.0
01/01:30pm 10.9 3.7 9.3 90 0.8 W 37 54 20 29 1005.8 1005.8 0.0
01/01:29pm 11.0 4.2 9.4 90 0.8 W 35 54 19 29 1005.8 1005.8 0.0
01/01:00pm 11.7 4.7 9.9 89 0.9 W 37 48 20 26 1005.6 1005.6 0.0
01/12:44pm 10.4 2.0 8.8 90 0.8 WNW 43 61 23 33 1005.4 1005.4 0.0
01/12:30pm 10.8 1.4 8.9 88 0.9 WNW 48 65 26 35 1005.2 1005.2 0.0
01/12:00pm 10.5 1.8 7.9 84 1.3 WNW 43 61 23 33 1005.1 1005.1 0.0
01/11:52am 10.9 2.7 8.3 84 1.3 WNW 41 61 22 33 1005.1 1005.1 0.0
01/11:30am 10.3 2.1 8.2 87 1.0 WNW 41 54 22 29 1005.1 1005.1 0.0
01/11:03am 10.3 1.7 8.1 86 1.1 WNW 43 61 23 33 1004.8 1004.8 0.0
01/11:00am 10.3 1.7 8.1 86 1.1 WNW 43 56 23 30 1004.8 1004.8 0.0
01/10:30am 10.1 1.3 7.9 86 1.1 WNW 44 59 24 32 1004.7 1004.7 0.0
01/10:25am 10.1 1.8 7.9 86 1.1 WNW 41 59 22 32 1004.7 1004.7 0.0
01/10:00am 10.0 3.0 8.3 89 0.8 WNW 35 48 19 26 1004.3 1004.3 0.0
01/09:30am 9.6 2.9 8.2 91 0.7 WNW 33 46 18 25 1004.0 1004.0 0.0
01/09:00am 9.3 3.1 7.9 91 0.7 WNW 30 41 16 22 1004.0 1004.0 0.2
01/08:30am 9.2 3.7 7.6 90 0.8 WNW 26 41 14 22 1003.6 1003.6 0.2
01/08:00am 9.3 3.2 8.2 93 0.5 WNW 30 39 16 21 1003.4 1003.4 0.2
01/07:30am 9.4 4.5 8.5 94 0.4 WNW 24 32 13 17 1003.1 1003.1 0.2
01/07:00am 9.3 3.7 8.8 97 0.2 NW 28 37 15 20 1002.6 1002.6 0.2
01/06:30am 9.1 5.1 9.0 99 0.0 WNW 20 30 11 16 1002.1 1002.1 0.2
01/06:00am 9.1 4.3 9.0 99 0.0 WNW 24 33 13 18 1001.9 1001.9 0.2
01/05:59am 9.1 3.9 9.0 99 0.0 WNW 26 33 14 18 1001.9 1001.9 0.2
01/05:47am 9.2 3.2 8.7 97 0.2 WNW 30 41 16 22 1001.9 1001.9 0.2
01/05:39am 9.9 6.2 9.3 96 0.3 N 19 41 10 22 1001.9 1001.9 0.2
01/05:30am 10.4 7.5 9.5 94 0.4 N 15 22 8 12 1001.1 1001.1 0.2
01/05:00am 10.9 7.4 8.8 87 1.0 NNE 17 22 9 12 1001.0 1001.0 0.0
01/04:30am 10.9 7.0 8.7 86 1.1 NNE 19 26 10 14 1001.2 1001.2 0.0
01/04:00am 11.1 6.1 8.1 82 1.5 N 24 32 13 17 1001.4 1001.4 0.0
01/03:30am 11.8 7.3 7.1 73 2.3 N 20 30 11 16 1001.8 1001.8 0.0
01/03:00am 12.0 6.8 7.1 72 2.4 N 24 41 13 22 1002.4 1002.4 0.0
01/02:30am 11.4 7.0 7.3 76 2.0 NNE 20 32 11 17 1002.8 1002.8 0.0
01/02:00am 10.7 6.9 7.6 81 1.5 NNE 17 24 9 13 1003.4 1003.4 0.0
01/01:30am 9.4 5.9 7.0 85 1.1 NE 15 19 8 10 1003.9 1003.9 0.0
01/01:00am 9.8 5.9 6.9 82 1.4 NNE 17 20 9 11 1004.4 1004.4 0.0
01/12:30am 9.7 5.8 7.1 84 1.2 NNE 17 20 9 11 1004.9 1004.9 0.0
01/12:00am 9.8 5.9 7.1 83 1.3 NNE 17 20 9 11 1005.5 1005.5 0.0
 
Date/Time
EST
Temp
°C
App
Temp
°C
Dew
Point
°C
Rel
Hum
%
Delta-T
°C
Wind Press
QNH
hPa
Press
MSL
hPa
Rain since
9am
mm
Dir  Spd
km/h
Gust
km/h
Spd
kts
Gust
kts
31/11:30pm 9.8 6.1 6.2 78 1.7 N 15 19 8 10 1006.1 1006.1 0.0
31/11:00pm 10.9 7.5 6.1 72 2.2 N 13 17 7 9 1006.7 1006.7 0.0
31/10:30pm 11.3 7.2 6.2 71 2.4 N 17 20 9 11 1007.2 1007.2 0.0
31/10:00pm 12.4 6.5 5.8 64 3.1 N 26 32 14 17 1007.5 1007.5 0.0
31/09:30pm 12.6 6.7 5.8 63 3.2 NNW 26 33 14 18 1007.7 1007.7 0.0
31/09:00pm 11.9 8.9 7.6 75 2.1 NNE 13 19 7 10 1008.3 1008.3 0.0
31/08:30pm 12.1 8.3 7.6 74 2.2 NNW 17 26 9 14 1008.8 1008.8 0.0
31/08:00pm 11.9 8.2 8.0 77 1.9 N 17 22 9 12 1009.1 1009.1 0.0
31/07:30pm 11.4 8.5 8.3 81 1.5 N 13 20 7 11 1009.4 1009.4 0.0
31/07:00pm 12.0 8.7 7.9 76 2.0 N 15 20 8 11 1009.4 1009.4 0.0
31/06:30pm 12.3 8.6 8.0 75 2.1 N 17 22 9 12 1009.5 1009.5 0.0
31/06:00pm 12.2 8.6 8.3 77 1.9 NNW 17 20 9 11 1009.4 1009.4 0.0
31/05:30pm 12.8 8.7 7.9 72 2.4 NNW 19 26 10 14 1009.5 1009.5 0.0
31/05:00pm 13.2 11.3 9.1 76 2.1 NNW 9 22 5 12 1009.5 1009.5 0.0
31/04:30pm 13.2 11.8 9.5 78 1.9 W 7 11 4 6 1009.5 1009.5 0.0
31/04:00pm 13.6 10.8 8.7 72 2.5 WNW 13 17 7 9 1009.6 1009.6 0.0
31/03:30pm 14.0 10.3 8.0 67 3.0 W 17 24 9 13 1009.7 1009.7 0.0
31/03:00pm 14.2 10.2 8.4 68 2.9 W 19 26 10 14 1009.6 1009.6 0.0
31/02:30pm 15.1 10.2 8.3 64 3.4 NW 24 35 13 19 1009.6 1009.6 0.0
31/02:00pm 15.4 10.3 7.7 60 3.8 NW 24 30 13 16 1009.7 1009.7 0.0
31/01:30pm 16.0 10.0 7.2 56 4.4 NW 28 37 15 20 1009.9 1009.9 0.0
31/01:00pm 15.6 9.2 6.9 56 4.3 NW 30 37 16 20 1010.3 1010.3 0.0
31/12:30pm 15.8 11.1 7.6 58 4.1 NW 22 28 12 15 1010.8 1010.8 0.0
31/12:00pm 15.3 10.1 7.3 59 4.0 NW 24 30 13 16 1011.3 1011.3 0.0
31/11:30am 15.7 10.5 7.2 57 4.2 NW 24 35 13 19 1011.6 1011.6 0.0
31/11:00am 16.0 10.9 7.7 58 4.2 WNW 24 32 13 17 1012.0 1012.0 0.0
31/10:30am 15.2 10.7 8.7 65 3.3 NW 22 26 12 14 1012.3 1012.3 0.0
31/10:00am 14.2 10.4 9.2 72 2.5 NW 19 22 10 12 1012.6 1012.6 0.0
31/09:30am 13.0 9.0 9.1 77 2.0 NW 20 24 11 13 1012.5 1012.5 0.0
31/09:00am 11.6 8.5 9.0 84 1.3 NW 15 20 8 11 1012.5 1012.5 0.0
31/08:30am 10.9 7.7 8.5 85 1.2 NW 15 17 8 9 1012.2 1012.2 0.0
31/08:00am 9.7 7.0 7.3 85 1.1 NW 11 15 6 8 1012.1 1012.1 0.0
31/07:30am 11.0 7.7 8.2 83 1.4 NW 15 17 8 9 1011.9 1011.9 0.0
31/07:00am 10.8 9.0 7.9 82 1.4 NNW 7 11 4 6 1012.1 1012.1 0.0
31/06:30am 11.4 8.0 7.7 78 1.8 NW 15 20 8 11 1011.7 1011.7 0.0
31/06:00am 12.1 8.0 7.8 75 2.1 NW 19 24 10 13 1011.5 1011.5 0.0
31/05:30am 12.5 8.3 7.6 72 2.4 NNW 19 28 10 15 1011.2 1011.2 0.0
31/05:00am 12.8 8.5 7.7 71 2.5 NNW 20 28 11 15 1011.1 1011.1 0.0
31/04:30am 12.6 8.2 7.3 70 2.6 NNW 20 30 11 16 1011.0 1011.0 0.0
31/04:00am 13.6 7.2 6.9 64 3.2 NNW 30 43 16 23 1010.8 1010.8 0.0
31/03:30am 13.8 8.2 7.1 64 3.3 NNW 26 41 14 22 1010.9 1010.9 0.0
31/03:07am 13.6 7.0 7.8 68 2.9 NNW 32 50 17 27 1010.9 1010.9 0.0
31/03:00am 13.8 6.3 7.8 67 3.0 NNW 37 50 20 27 1010.9 1010.9 0.0
31/02:30am 13.7 6.9 7.7 67 3.0 NNW 33 52 18 28 1011.2 1011.2 0.0
31/02:00am 14.0 6.5 7.8 66 3.1 NNW 37 57 20 31 1011.3 1011.3 0.0
31/01:42am 14.0 6.0 7.3 64 3.3 NNW 39 57 21 31 1011.0 1011.0 0.0
31/01:30am 14.6 5.7 6.7 59 3.8 NNW 43 59 23 32 1010.6 1010.6 0.0
31/01:03am 15.2 7.3 6.2 55 4.3 NNW 37 59 20 32 1010.7 1010.7 0.0
31/01:00am 15.1 7.6 6.1 55 4.3 NNW 35 52 19 28 1011.0 1011.0 0.0
31/12:31am 15.8 6.5 5.7 51 4.8 NW 44 63 24 34 1010.9 1010.9 0.0
31/12:30am 15.7 6.0 5.9 52 4.7 NW 46 63 25 34 1010.9 1010.9 0.0
31/12:01am 16.2 10.0 6.1 51 4.9 NNW 28 50 15 27 1011.1 1011.1 0.0
31/12:00am 15.9 9.7 6.1 52 4.7 NNW 28 39 15 21 1011.1 1011.1 0.0
 
Date/Time
EST
Temp
°C
App
Temp
°C
Dew
Point
°C
Rel
Hum
%
Delta-T
°C
Wind Press
QNH
hPa
Press
MSL
hPa
Rain since
9am
mm
Dir  Spd
km/h
Gust
km/h
Spd
kts
Gust
kts
30/11:30pm 15.2 9.1 6.7 57 4.1 N 28 39 15 21 1010.7 1010.7 0.0
30/11:00pm 15.2 9.2 7.0 58 4.0 N 28 35 15 19 1010.8 1010.8 0.0
30/10:30pm 15.4 8.7 7.4 59 4.0 N 32 39 17 21 1011.1 1011.1 0.0
30/10:00pm 15.5 8.9 7.8 60 3.9 N 32 39 17 21 1011.6 1011.6 0.0
30/09:30pm 15.3 9.2 8.3 63 3.5 N 30 50 16 27 1012.0 1012.0 0.0
30/09:25pm 15.6 9.6 8.6 63 3.6 N 30 50 16 27 1012.0 1012.0 0.0
30/09:00pm 15.0 9.8 8.7 66 3.2 N 26 35 14 19 1012.3 1012.3 0.0
30/08:30pm 15.2 8.7 8.0 62 3.6 N 32 44 17 24 1011.5 1011.5 0.0
30/08:00pm 15.0 7.8 7.8 62 3.6 N 35 44 19 24 1011.8 1011.8 0.0
30/07:30pm 14.6 7.7 7.4 62 3.5 N 33 46 18 25 1011.2 1011.2 0.0
30/07:00pm 14.6 7.0 7.6 63 3.5 NNE 37 52 20 28 1010.7 1010.7 0.0
30/06:30pm 14.3 6.7 7.6 64 3.3 NNE 37 50 20 27 1011.0 1011.0 0.0
30/06:00pm 14.4 7.1 7.2 62 3.5 NNE 35 52 19 28 1011.8 1011.8 0.0
30/05:57pm 14.5 7.6 7.3 62 3.5 NNE 33 52 18 28 1011.9 1011.9 0.0
30/05:30pm 14.4 7.4 6.7 60 3.7 N 33 46 18 25 1012.5 1012.5 0.0
30/05:00pm 15.0 7.3 7.1 59 3.9 NNE 37 50 20 27 1012.3 1012.3 0.0
30/04:30pm 15.7 7.6 7.0 56 4.3 NNE 39 57 21 31 1012.6 1012.6 0.0
30/04:00pm 15.8 8.0 6.8 55 4.4 N 37 56 20 30 1013.1 1013.1 0.0
30/03:46pm 16.0 9.6 7.0 55 4.4 N 30 48 16 26 1013.6 1013.6 0.0
30/03:30pm 16.2 8.4 6.6 53 4.7 N 37 52 20 28 1013.8 1013.8 0.0
30/03:00pm 16.3 9.6 7.5 56 4.4 NNE 32 52 17 28 1014.1 1014.1 0.0
30/02:52pm 16.3 9.4 7.3 55 4.5 NNE 33 52 18 28 1014.4 1014.4 0.0
30/02:30pm 16.3 9.5 7.5 56 4.4 N 33 46 18 25 1015.0 1015.0 0.0
30/02:00pm 16.3 9.6 7.5 56 4.4 N 32 46 17 25 1015.8 1015.8 0.0
30/01:30pm 17.2 10.1 8.1 55 4.6 N 35 59 19 32 1016.0 1016.0 0.0
30/01:25pm 16.7 8.6 6.8 52 4.9 N 39 59 21 32 1016.1 1016.1 0.0
30/01:00pm 16.8 9.5 7.4 54 4.7 N 35 50 19 27 1016.9 1016.9 0.0
30/12:30pm 16.7 10.1 7.6 55 4.6 N 32 48 17 26 1017.8 1017.8 0.0
30/12:24pm 17.1 11.1 8.8 58 4.3 N 30 48 16 26 1018.0 1018.0 0.0
30/12:00pm 16.6 10.1 8.3 58 4.2 N 32 43 17 23 1018.5 1018.5 0.0
30/11:30am 16.1 10.1 8.6 61 3.8 NNE 30 41 16 22 1019.2 1019.2 0.0
30/11:00am 15.3 9.2 8.3 63 3.5 NNE 30 39 16 21 1020.1 1020.1 0.0
30/10:30am 14.7 10.5 9.9 73 2.5 NE 22 30 12 16 1020.9 1020.9 0.0
30/10:00am 13.3 8.3 9.5 78 1.9 NE 26 32 14 17 1021.5 1021.5 0.0
30/09:30am 12.4 8.7 10.1 86 1.2 NNE 20 30 11 16 1022.0 1022.0 0.0
30/09:00am 11.3 7.9 10.7 96 0.3 NNE 19 24 10 13 1022.4 1022.4 0.0
30/08:30am 9.8 6.5 9.7 99 0.1 NNE 17 22 9 12 1022.8 1022.8 0.0
30/08:00am 8.5 5.7 8.5 100 0.0 NE 13 19 7 10 1022.8 1022.8 0.0
30/07:30am 8.6 5.8 8.6 100 0.0 NNE 13 20 7 11 1022.8 1022.8 0.0
30/07:00am 7.9 4.9 7.9 100 0.0 NE 13 17 7 9 1022.7 1022.7 0.0
30/06:30am 7.6 5.0 7.6 100 0.0 NE 11 15 6 8 1022.4 1022.4 0.0
30/06:00am 6.4 5.6 6.4 100 0.0 CALM 0 0 0 0 1022.4 1022.4 0.0
30/05:30am 7.6 5.9 7.6 100 0.0 N 6 7 3 4 1022.4 1022.4 0.0
30/05:00am 7.7 7.2 7.7 100 0.0 CALM 0 0 0 0 1022.4 1022.4 0.0
30/04:30am 7.4 5.4 7.3 99 0.0 N 7 9 4 5 1022.4 1022.4 0.0
30/04:00am 8.1 5.2 8.1 100 0.0 NNE 13 17 7 9 1022.4 1022.4 0.0
30/03:30am 9.1 5.3 9.1 100 0.0 NNE 19 22 10 12 1022.4 1022.4 0.0
30/03:00am 7.5 5.2 7.5 100 0.0 NNE 9 13 5 7 1022.7 1022.7 0.0
30/02:30am 7.8 4.8 7.8 100 0.0 NNE 13 19 7 10 1022.8 1022.8 0.0
30/02:00am 8.9 6.2 8.9 100 0.0 NNE 13 17 7 9 1022.8 1022.8 0.0
30/01:30am 7.9 5.3 7.9 100 0.0 NNE 11 15 6 8 1022.9 1022.9 0.0
30/01:00am 7.4 5.1 7.4 100 0.0 N 9 11 5 6 1023.4 1023.4 0.0
30/12:30am 7.9 5.3 7.9 100 0.0 NNE 11 13 6 7 1023.7 1023.7 0.0
30/12:00am 8.5 5.7 8.5 100 0.0 NNE 13 17 7 9 1024.0 1024.0 0.0
 
Date/Time
EST
Temp
°C
App
Temp
°C
Dew
Point
°C
Rel
Hum
%
Delta-T
°C
Wind Press
QNH
hPa
Press
MSL
hPa
Rain since
9am
mm
Dir  Spd
km/h
Gust
km/h
Spd
kts
Gust
kts
29/11:30pm 9.4 6.8 9.4 100 0.0 NNE 13 19 7 10 1024.2 1024.2 0.0
29/11:00pm 9.5 6.2 9.5 100 0.0 NNE 17 22 9 12 1024.3 1024.3 0.0
29/10:30pm 9.7 6.8 9.6 99 0.0 NNE 15 20 8 11 1024.4 1024.4 0.0
29/10:00pm 10.3 6.8 10.1 99 0.1 NNE 19 24 10 13 1024.5 1024.5 0.0
29/09:30pm 10.5 7.0 10.3 99 0.1 NNE 19 24 10 13 1024.5 1024.5 0.0
29/09:00pm 10.5 6.9 10.0 97 0.3 NNE 19 26 10 14 1024.6 1024.6 0.0
29/08:30pm 10.6 7.1 10.3 98 0.2 NNE 19 24 10 13 1024.5 1024.5 0.0
29/08:00pm 10.7 6.6 10.2 97 0.3 NNE 22 28 12 15 1024.4 1024.4 0.0
29/07:30pm 10.9 7.7 9.8 93 0.6 NNE 17 24 9 13 1024.3 1024.3 0.0

Latest Capital City Observations: Canberra | Sydney | Melbourne | Brisbane | Adelaide | Perth | Hobart | Darwin

Other formats

Comma delimited format used in spreadsheet applications
http://www.bom.gov.au/fwo/IDV60901/IDV60901.94854.axf

JavaScript Object Notation format (JSON) in row-major order
http://www.bom.gov.au/fwo/IDV60901/IDV60901.94854.json

Data quality

Most of these data are generated automatically and are frequently updated. Quality checks on data are not normally performed. It is possible for incorrect values to appear. Refer to information at About Latest Weather Observations and please check the disclaimer before using these data.